ينبع, السعودية

01:27 PM AST on ابریل 27, 2015 (GMT +0300)
Yenbo | | Change Station
CLOSE
Current Station
Airport
Location: Yenbo,
Elevation: 26 ft
Nearby Weather Stations

Elev 26 ft 24.14 °N, 38.06 °E | Updated 27 minutes ago

Clear
صافية
95 °F
Feels Like 93 °F
N
12
ريح متغير ريح from جنوب غربی

هذا اليوم
High -- | Low -- °F
--% Chance of Precip.
Yesterday
High -- | Low -- °F
Precip. -- في
5:56 AM 6:54 PM
الأحدب الأول, 64% visible
الضغط 29.80 في
وضوح الرؤية 1.2 أميال
سحابات صافية
مؤشر الحرارة 93 °F
نقطة الندى 55 °F
الرطوبة 26%
Rainfall 0.00 في
عمق الثلج Not available.
الأشعة فوق البنفسجية 16 out of 12
Pollen Not available.
جودة الهواء Not available.
Flu Activity Not available.
METAR OEYN 271000Z 22010KT 2000 DU SKC 35/13 Q1009 TEMPO 1000

More Conditions Fewer Conditions

الضغط 29.80 في
وضوح الرؤية 1.2 أميال
سحابات صافية
مؤشر الحرارة 93 °F
نقطة الندى 55 °F
الرطوبة 26%
Rainfall 0.00 في
عمق الثلج Not available.
الأشعة فوق البنفسجية 16 out of 12
Pollen Not available.
جودة الهواء Not available.
Flu Activity Not available.
METAR OEYN 271000Z 22010KT 2000 DU SKC 35/13 Q1009 TEMPO 1000

More Conditions Fewer Conditions

10-Day Weather Forecast

Almanac

علم الفلك

Apr. 27, 2015 Rise Set
Actual Time
Civil Twilight
Nautical Twilight
Astronomical Twilight
قمر
Length Of Visible Light
طول الیوم
Tomorrow will be .
, % of the Moon is Illuminated

Today's Extremes

Country Highs Country Lows

Community

WunderPhotos

Upload Photos

1,817,278 photos uploaded!

WunderBlogs® & News

Nearby

جودة الهواء

  جودة الهواء AQ Index Pollutant
Not available.

عمق الثلج

Station Depth Elevation

Earthquake Activity

City Distance Mag. Time & Date
Minimum magnitude displayed is 2.5.

Coastal Water Temperatures

مكان درجات الحرارة

Stations

Nearby Weather Stations

Station Location الحرارة رياح باردة نقطة الندى الرطوبة ريح Precip. Elev تحديث Type